sensor_id;sensor_type;location;lat;lon;timestamp;P1;durP1;ratioP1;P2;durP2;ratioP2
23171;SDS011;11754;42.664;23.594;2024-02-21T00:00:39;14.25;;;10.35;;
23171;SDS011;11754;42.664;23.594;2024-02-21T00:03:05;12.82;;;9.93;;
23171;SDS011;11754;42.664;23.594;2024-02-21T00:05:31;13.68;;;10.07;;
23171;SDS011;11754;42.664;23.594;2024-02-21T00:07:58;15.05;;;10.50;;
23171;SDS011;11754;42.664;23.594;2024-02-21T00:10:24;14.55;;;10.48;;
23171;SDS011;11754;42.664;23.594;2024-02-21T00:12:50;14.95;;;11.13;;
23171;SDS011;11754;42.664;23.594;2024-02-21T00:15:16;16.17;;;11.45;;
23171;SDS011;11754;42.664;23.594;2024-02-21T00:17:42;14.55;;;11.00;;
23171;SDS011;11754;42.664;23.594;2024-02-21T00:20:09;14.52;;;10.93;;
23171;SDS011;11754;42.664;23.594;2024-02-21T00:22:35;16.10;;;10.90;;
23171;SDS011;11754;42.664;23.594;2024-02-21T00:25:00;14.68;;;10.48;;
23171;SDS011;11754;42.664;23.594;2024-02-21T00:27:26;14.48;;;10.73;;
23171;SDS011;11754;42.664;23.594;2024-02-21T00:29:51;13.68;;;10.27;;
23171;SDS011;11754;42.664;23.594;2024-02-21T00:32:17;14.55;;;10.15;;
23171;SDS011;11754;42.664;23.594;2024-02-21T00:34:43;14.40;;;10.77;;
23171;SDS011;11754;42.664;23.594;2024-02-21T00:37:09;13.60;;;10.23;;
23171;SDS011;11754;42.664;23.594;2024-02-21T00:53:01;14.40;;;9.13;;
23171;SDS011;11754;42.664;23.594;2024-02-21T00:55:26;14.60;;;10.23;;
23171;SDS011;11754;42.664;23.594;2024-02-21T00:57:52;17.33;;;10.57;;
23171;SDS011;11754;42.664;23.594;2024-02-21T01:00:17;12.07;;;9.35;;
23171;SDS011;11754;42.664;23.594;2024-02-21T01:02:48;11.35;;;8.73;;
23171;SDS011;11754;42.664;23.594;2024-02-21T01:05:14;13.10;;;9.43;;
23171;SDS011;11754;42.664;23.594;2024-02-21T01:07:39;13.82;;;9.95;;
23171;SDS011;11754;42.664;23.594;2024-02-21T01:10:05;14.43;;;10.27;;
23171;SDS011;11754;42.664;23.594;2024-02-21T01:12:31;12.90;;;9.48;;
23171;SDS011;11754;42.664;23.594;2024-02-21T01:14:56;11.77;;;9.35;;
23171;SDS011;11754;42.664;23.594;2024-02-21T01:17:22;13.23;;;9.57;;
23171;SDS011;11754;42.664;23.594;2024-02-21T01:23:08;12.55;;;9.27;;
23171;SDS011;11754;42.664;23.594;2024-02-21T01:25:34;11.15;;;8.50;;
23171;SDS011;11754;42.664;23.594;2024-02-21T01:27:59;10.93;;;8.52;;
23171;SDS011;11754;42.664;23.594;2024-02-21T01:30:25;14.40;;;9.25;;
23171;SDS011;11754;42.664;23.594;2024-02-21T01:32:50;11.70;;;9.00;;
23171;SDS011;11754;42.664;23.594;2024-02-21T01:35:15;11.95;;;9.05;;
23171;SDS011;11754;42.664;23.594;2024-02-21T01:37:41;14.20;;;9.25;;
23171;SDS011;11754;42.664;23.594;2024-02-21T01:40:06;11.50;;;8.55;;
23171;SDS011;11754;42.664;23.594;2024-02-21T01:42:32;11.13;;;8.60;;
23171;SDS011;11754;42.664;23.594;2024-02-21T01:44:58;12.85;;;9.57;;
23171;SDS011;11754;42.664;23.594;2024-02-21T01:47:23;12.77;;;9.10;;
23171;SDS011;11754;42.664;23.594;2024-02-21T01:49:49;12.30;;;9.30;;
23171;SDS011;11754;42.664;23.594;2024-02-21T01:52:14;13.30;;;9.70;;
23171;SDS011;11754;42.664;23.594;2024-02-21T01:54:42;13.18;;;9.20;;
23171;SDS011;11754;42.664;23.594;2024-02-21T01:57:08;13.48;;;9.88;;
23171;SDS011;11754;42.664;23.594;2024-02-21T01:59:34;13.25;;;9.45;;
23171;SDS011;11754;42.664;23.594;2024-02-21T02:02:00;16.77;;;10.82;;
23171;SDS011;11754;42.664;23.594;2024-02-21T02:04:27;13.35;;;9.82;;
23171;SDS011;11754;42.664;23.594;2024-02-21T02:06:53;13.15;;;9.88;;
23171;SDS011;11754;42.664;23.594;2024-02-21T02:09:20;14.10;;;9.98;;
23171;SDS011;11754;42.664;23.594;2024-02-21T02:11:45;13.57;;;9.95;;
23171;SDS011;11754;42.664;23.594;2024-02-21T02:14:10;14.52;;;9.32;;
23171;SDS011;11754;42.664;23.594;2024-02-21T02:16:36;13.25;;;9.18;;
23171;SDS011;11754;42.664;23.594;2024-02-21T02:19:01;12.75;;;9.30;;
23171;SDS011;11754;42.664;23.594;2024-02-21T02:21:29;13.35;;;9.35;;
23171;SDS011;11754;42.664;23.594;2024-02-21T02:23:56;13.98;;;10.38;;
23171;SDS011;11754;42.664;23.594;2024-02-21T02:26:22;15.75;;;10.70;;
23171;SDS011;11754;42.664;23.594;2024-02-21T02:28:47;14.63;;;11.80;;
23171;SDS011;11754;42.664;23.594;2024-02-21T02:40:40;13.32;;;10.23;;
23171;SDS011;11754;42.664;23.594;2024-02-21T02:43:06;12.82;;;9.85;;
23171;SDS011;11754;42.664;23.594;2024-02-21T02:45:32;15.00;;;10.35;;
23171;SDS011;11754;42.664;23.594;2024-02-21T02:47:58;19.48;;;14.57;;
23171;SDS011;11754;42.664;23.594;2024-02-21T02:50:24;17.85;;;12.85;;
23171;SDS011;11754;42.664;23.594;2024-02-21T02:52:50;15.70;;;11.57;;
23171;SDS011;11754;42.664;23.594;2024-02-21T02:55:16;15.45;;;11.85;;
23171;SDS011;11754;42.664;23.594;2024-02-21T02:57:41;14.35;;;10.70;;
23171;SDS011;11754;42.664;23.594;2024-02-21T03:00:07;17.05;;;11.10;;
23171;SDS011;11754;42.664;23.594;2024-02-21T03:02:34;16.00;;;11.85;;
23171;SDS011;11754;42.664;23.594;2024-02-21T03:05:00;17.55;;;12.57;;
23171;SDS011;11754;42.664;23.594;2024-02-21T03:07:25;17.17;;;12.27;;
23171;SDS011;11754;42.664;23.594;2024-02-21T03:09:51;18.45;;;12.63;;
23171;SDS011;11754;42.664;23.594;2024-02-21T03:12:18;19.65;;;12.88;;
23171;SDS011;11754;42.664;23.594;2024-02-21T03:14:49;17.25;;;12.13;;
23171;SDS011;11754;42.664;23.594;2024-02-21T03:17:15;16.85;;;12.20;;
23171;SDS011;11754;42.664;23.594;2024-02-21T03:19:41;16.33;;;11.50;;
23171;SDS011;11754;42.664;23.594;2024-02-21T03:22:06;16.30;;;10.02;;
23171;SDS011;11754;42.664;23.594;2024-02-21T03:24:32;14.38;;;10.10;;
23171;SDS011;11754;42.664;23.594;2024-02-21T03:26:58;13.15;;;9.52;;
23171;SDS011;11754;42.664;23.594;2024-02-21T03:29:24;14.88;;;10.38;;
23171;SDS011;11754;42.664;23.594;2024-02-21T03:31:49;14.50;;;10.98;;
23171;SDS011;11754;42.664;23.594;2024-02-21T03:34:15;13.45;;;9.93;;
23171;SDS011;11754;42.664;23.594;2024-02-21T03:36:40;13.60;;;10.48;;
23171;SDS011;11754;42.664;23.594;2024-02-21T03:39:06;13.52;;;9.95;;
23171;SDS011;11754;42.664;23.594;2024-02-21T03:41:33;12.82;;;9.50;;
23171;SDS011;11754;42.664;23.594;2024-02-21T03:43:58;14.50;;;9.80;;
23171;SDS011;11754;42.664;23.594;2024-02-21T03:46:24;12.02;;;9.63;;
23171;SDS011;11754;42.664;23.594;2024-02-21T03:48:50;19.58;;;10.57;;
23171;SDS011;11754;42.664;23.594;2024-02-21T03:51:15;13.35;;;10.80;;
23171;SDS011;11754;42.664;23.594;2024-02-21T03:53:41;14.98;;;11.38;;
23171;SDS011;11754;42.664;23.594;2024-02-21T03:56:06;14.10;;;11.00;;
23171;SDS011;11754;42.664;23.594;2024-02-21T03:58:32;21.58;;;15.13;;
23171;SDS011;11754;42.664;23.594;2024-02-21T04:01:01;31.15;;;20.73;;
23171;SDS011;11754;42.664;23.594;2024-02-21T04:03:27;25.65;;;16.35;;
23171;SDS011;11754;42.664;23.594;2024-02-21T04:12:48;15.57;;;10.27;;
23171;SDS011;11754;42.664;23.594;2024-02-21T04:15:15;14.65;;;11.25;;
23171;SDS011;11754;42.664;23.594;2024-02-21T04:17:41;14.93;;;11.05;;
23171;SDS011;11754;42.664;23.594;2024-02-21T04:20:13;17.98;;;12.38;;
23171;SDS011;11754;42.664;23.594;2024-02-21T04:22:44;22.10;;;14.00;;
23171;SDS011;11754;42.664;23.594;2024-02-21T04:35:14;28.70;;;18.75;;
23171;SDS011;11754;42.664;23.594;2024-02-21T04:37:40;43.15;;;26.05;;
23171;SDS011;11754;42.664;23.594;2024-02-21T04:40:05;51.65;;;32.42;;
23171;SDS011;11754;42.664;23.594;2024-02-21T04:42:31;36.45;;;24.45;;
23171;SDS011;11754;42.664;23.594;2024-02-21T04:44:56;31.17;;;21.33;;
23171;SDS011;11754;42.664;23.594;2024-02-21T04:47:22;33.78;;;22.27;;
23171;SDS011;11754;42.664;23.594;2024-02-21T04:49:50;34.13;;;20.80;;
23171;SDS011;11754;42.664;23.594;2024-02-21T04:52:15;28.45;;;19.85;;
23171;SDS011;11754;42.664;23.594;2024-02-21T05:01:29;18.00;;;13.40;;
23171;SDS011;11754;42.664;23.594;2024-02-21T05:03:54;18.65;;;12.82;;
23171;SDS011;11754;42.664;23.594;2024-02-21T05:06:20;30.90;;;15.27;;
23171;SDS011;11754;42.664;23.594;2024-02-21T05:08:45;22.33;;;13.68;;
23171;SDS011;11754;42.664;23.594;2024-02-21T05:11:11;31.23;;;20.23;;
23171;SDS011;11754;42.664;23.594;2024-02-21T05:13:36;28.45;;;19.55;;
23171;SDS011;11754;42.664;23.594;2024-02-21T05:16:01;27.35;;;18.98;;
23171;SDS011;11754;42.664;23.594;2024-02-21T05:18:28;67.13;;;41.40;;
23171;SDS011;11754;42.664;23.594;2024-02-21T05:20:53;104.97;;;69.30;;
23171;SDS011;11754;42.664;23.594;2024-02-21T05:23:19;64.20;;;43.38;;
23171;SDS011;11754;42.664;23.594;2024-02-21T05:25:44;70.40;;;47.92;;
23171;SDS011;11754;42.664;23.594;2024-02-21T05:28:09;65.80;;;45.13;;
23171;SDS011;11754;42.664;23.594;2024-02-21T05:30:35;60.25;;;41.05;;
23171;SDS011;11754;42.664;23.594;2024-02-21T05:33:04;56.33;;;39.10;;
23171;SDS011;11754;42.664;23.594;2024-02-21T05:35:30;51.33;;;36.38;;
23171;SDS011;11754;42.664;23.594;2024-02-21T05:37:56;38.47;;;26.00;;
23171;SDS011;11754;42.664;23.594;2024-02-21T05:40:21;35.20;;;23.60;;
23171;SDS011;11754;42.664;23.594;2024-02-21T05:42:47;39.42;;;28.40;;
23171;SDS011;11754;42.664;23.594;2024-02-21T05:45:12;37.67;;;25.27;;
23171;SDS011;11754;42.664;23.594;2024-02-21T05:47:38;32.55;;;21.65;;
23171;SDS011;11754;42.664;23.594;2024-02-21T05:50:03;53.47;;;28.63;;
23171;SDS011;11754;42.664;23.594;2024-02-21T05:52:29;72.22;;;37.28;;
23171;SDS011;11754;42.664;23.594;2024-02-21T05:54:55;69.15;;;35.20;;
23171;SDS011;11754;42.664;23.594;2024-02-21T05:57:21;49.83;;;28.92;;
23171;SDS011;11754;42.664;23.594;2024-02-21T05:59:46;38.95;;;23.23;;
23171;SDS011;11754;42.664;23.594;2024-02-21T06:08:55;25.50;;;17.80;;
23171;SDS011;11754;42.664;23.594;2024-02-21T06:11:20;29.30;;;19.85;;
23171;SDS011;11754;42.664;23.594;2024-02-21T06:13:46;22.67;;;15.55;;
23171;SDS011;11754;42.664;23.594;2024-02-21T06:16:11;20.85;;;15.63;;
23171;SDS011;11754;42.664;23.594;2024-02-21T06:18:37;19.45;;;15.15;;
23171;SDS011;11754;42.664;23.594;2024-02-21T06:21:03;25.45;;;17.70;;
23171;SDS011;11754;42.664;23.594;2024-02-21T06:23:29;19.50;;;15.23;;
23171;SDS011;11754;42.664;23.594;2024-02-21T06:25:54;20.25;;;14.88;;
23171;SDS011;11754;42.664;23.594;2024-02-21T06:28:19;64.00;;;42.53;;
23171;SDS011;11754;42.664;23.594;2024-02-21T06:30:45;130.05;;;78.43;;
23171;SDS011;11754;42.664;23.594;2024-02-21T06:33:11;20.25;;;15.13;;
23171;SDS011;11754;42.664;23.594;2024-02-21T06:35:36;23.17;;;17.15;;
23171;SDS011;11754;42.664;23.594;2024-02-21T06:38:03;25.05;;;18.45;;
23171;SDS011;11754;42.664;23.594;2024-02-21T06:40:29;23.42;;;17.50;;
23171;SDS011;11754;42.664;23.594;2024-02-21T06:42:56;22.85;;;17.33;;
23171;SDS011;11754;42.664;23.594;2024-02-21T06:45:21;21.33;;;16.95;;
23171;SDS011;11754;42.664;23.594;2024-02-21T06:47:47;26.90;;;17.10;;
23171;SDS011;11754;42.664;23.594;2024-02-21T07:03:38;21.33;;;16.33;;
23171;SDS011;11754;42.664;23.594;2024-02-21T07:06:04;20.52;;;15.73;;
23171;SDS011;11754;42.664;23.594;2024-02-21T07:08:29;20.05;;;15.40;;
23171;SDS011;11754;42.664;23.594;2024-02-21T07:10:55;19.80;;;14.63;;
23171;SDS011;11754;42.664;23.594;2024-02-21T07:13:20;20.85;;;15.02;;
23171;SDS011;11754;42.664;23.594;2024-02-21T07:15:47;20.08;;;14.32;;
23171;SDS011;11754;42.664;23.594;2024-02-21T07:18:13;18.95;;;14.63;;
23171;SDS011;11754;42.664;23.594;2024-02-21T07:20:39;21.38;;;16.30;;
23171;SDS011;11754;42.664;23.594;2024-02-21T07:26:27;21.85;;;16.42;;
23171;SDS011;11754;42.664;23.594;2024-02-21T07:28:52;22.77;;;16.00;;
23171;SDS011;11754;42.664;23.594;2024-02-21T07:31:18;21.25;;;16.58;;
23171;SDS011;11754;42.664;23.594;2024-02-21T07:33:43;22.63;;;17.10;;
23171;SDS011;11754;42.664;23.594;2024-02-21T07:36:10;25.67;;;18.75;;
23171;SDS011;11754;42.664;23.594;2024-02-21T07:38:36;24.33;;;18.13;;
23171;SDS011;11754;42.664;23.594;2024-02-21T07:41:01;23.50;;;17.15;;
23171;SDS011;11754;42.664;23.594;2024-02-21T07:43:27;25.65;;;17.42;;
23171;SDS011;11754;42.664;23.594;2024-02-21T07:45:53;20.40;;;16.05;;
23171;SDS011;11754;42.664;23.594;2024-02-21T07:55:02;20.48;;;16.30;;
23171;SDS011;11754;42.664;23.594;2024-02-21T07:57:28;24.55;;;17.10;;
23171;SDS011;11754;42.664;23.594;2024-02-21T07:59:53;22.80;;;17.00;;
23171;SDS011;11754;42.664;23.594;2024-02-21T08:02:19;20.90;;;15.70;;
23171;SDS011;11754;42.664;23.594;2024-02-21T08:04:44;20.05;;;15.98;;
23171;SDS011;11754;42.664;23.594;2024-02-21T08:07:10;21.27;;;15.80;;
23171;SDS011;11754;42.664;23.594;2024-02-21T08:09:35;22.00;;;15.63;;
23171;SDS011;11754;42.664;23.594;2024-02-21T08:12:03;23.15;;;16.17;;
23171;SDS011;11754;42.664;23.594;2024-02-21T08:14:29;22.08;;;15.38;;
23171;SDS011;11754;42.664;23.594;2024-02-21T08:16:54;19.75;;;15.20;;
23171;SDS011;11754;42.664;23.594;2024-02-21T08:19:21;16.08;;;14.35;;
23171;SDS011;11754;42.664;23.594;2024-02-21T08:21:47;21.45;;;14.75;;
23171;SDS011;11754;42.664;23.594;2024-02-21T08:24:13;21.10;;;15.68;;
23171;SDS011;11754;42.664;23.594;2024-02-21T08:26:40;18.77;;;15.13;;
23171;SDS011;11754;42.664;23.594;2024-02-21T08:29:06;18.70;;;15.63;;
23171;SDS011;11754;42.664;23.594;2024-02-21T08:31:31;19.45;;;15.05;;
23171;SDS011;11754;42.664;23.594;2024-02-21T08:44:01;23.55;;;16.25;;
23171;SDS011;11754;42.664;23.594;2024-02-21T08:46:28;20.48;;;16.90;;
23171;SDS011;11754;42.664;23.594;2024-02-21T08:48:54;28.27;;;17.17;;
23171;SDS011;11754;42.664;23.594;2024-02-21T08:51:20;22.83;;;16.30;;
23171;SDS011;11754;42.664;23.594;2024-02-21T08:53:45;20.00;;;15.80;;
23171;SDS011;11754;42.664;23.594;2024-02-21T08:56:11;25.95;;;17.02;;
23171;SDS011;11754;42.664;23.594;2024-02-21T08:58:37;27.30;;;17.35;;
23171;SDS011;11754;42.664;23.594;2024-02-21T09:01:03;21.70;;;16.00;;
23171;SDS011;11754;42.664;23.594;2024-02-21T09:03:33;24.63;;;16.90;;
23171;SDS011;11754;42.664;23.594;2024-02-21T09:06:17;19.30;;;15.82;;
23171;SDS011;11754;42.664;23.594;2024-02-21T09:08:43;25.77;;;15.82;;
23171;SDS011;11754;42.664;23.594;2024-02-21T09:11:08;19.83;;;16.25;;
23171;SDS011;11754;42.664;23.594;2024-02-21T09:13:34;15.95;;;14.25;;
23171;SDS011;11754;42.664;23.594;2024-02-21T09:15:59;23.38;;;15.20;;
23171;SDS011;11754;42.664;23.594;2024-02-21T09:18:25;18.92;;;15.32;;
23171;SDS011;11754;42.664;23.594;2024-02-21T09:20:50;19.20;;;14.85;;
23171;SDS011;11754;42.664;23.594;2024-02-21T09:23:16;21.73;;;14.07;;
23171;SDS011;11754;42.664;23.594;2024-02-21T09:25:41;14.98;;;13.38;;
23171;SDS011;11754;42.664;23.594;2024-02-21T09:28:07;15.07;;;13.48;;
23171;SDS011;11754;42.664;23.594;2024-02-21T09:30:32;18.27;;;13.40;;
23171;SDS011;11754;42.664;23.594;2024-02-21T09:32:58;16.27;;;13.63;;
23171;SDS011;11754;42.664;23.594;2024-02-21T09:35:24;24.83;;;13.23;;
23171;SDS011;11754;42.664;23.594;2024-02-21T09:37:52;22.40;;;13.82;;
23171;SDS011;11754;42.664;23.594;2024-02-21T09:40:18;16.35;;;13.68;;
23171;SDS011;11754;42.664;23.594;2024-02-21T09:42:43;22.55;;;13.70;;
23171;SDS011;11754;42.664;23.594;2024-02-21T10:14:35;14.38;;;10.98;;
23171;SDS011;11754;42.664;23.594;2024-02-21T10:17:01;18.38;;;9.77;;
23171;SDS011;11754;42.664;23.594;2024-02-21T10:19:27;9.35;;;7.97;;
23171;SDS011;11754;42.664;23.594;2024-02-21T10:22:00;11.68;;;7.43;;
23171;SDS011;11754;42.664;23.594;2024-02-21T10:41:18;8.00;;;6.57;;
23171;SDS011;11754;42.664;23.594;2024-02-21T10:43:46;12.15;;;7.35;;
23171;SDS011;11754;42.664;23.594;2024-02-21T10:46:17;7.97;;;6.57;;
23171;SDS011;11754;42.664;23.594;2024-02-21T10:48:45;7.60;;;6.82;;
23171;SDS011;11754;42.664;23.594;2024-02-21T10:56:38;8.57;;;6.93;;
23171;SDS011;11754;42.664;23.594;2024-02-21T10:59:06;8.32;;;7.20;;
23171;SDS011;11754;42.664;23.594;2024-02-21T11:01:32;7.53;;;6.70;;
23171;SDS011;11754;42.664;23.594;2024-02-21T11:04:04;15.55;;;8.30;;
23171;SDS011;11754;42.664;23.594;2024-02-21T11:06:32;11.70;;;7.00;;
23171;SDS011;11754;42.664;23.594;2024-02-21T11:09:06;11.75;;;6.53;;
23171;SDS011;11754;42.664;23.594;2024-02-21T11:16:34;6.30;;;5.03;;
23171;SDS011;11754;42.664;23.594;2024-02-21T11:19:07;5.15;;;4.65;;
23171;SDS011;11754;42.664;23.594;2024-02-21T11:21:35;5.65;;;4.78;;
23171;SDS011;11754;42.664;23.594;2024-02-21T11:24:02;5.78;;;4.72;;
23171;SDS011;11754;42.664;23.594;2024-02-21T11:26:28;5.75;;;4.70;;
23171;SDS011;11754;42.664;23.594;2024-02-21T11:42:40;11.07;;;5.45;;
23171;SDS011;11754;42.664;23.594;2024-02-21T11:45:05;8.30;;;5.43;;
23171;SDS011;11754;42.664;23.594;2024-02-21T11:47:32;8.45;;;5.45;;
23171;SDS011;11754;42.664;23.594;2024-02-21T11:49:57;5.78;;;5.28;;
23171;SDS011;11754;42.664;23.594;2024-02-21T11:52:23;6.00;;;5.40;;
23171;SDS011;11754;42.664;23.594;2024-02-21T11:55:07;9.23;;;5.05;;
23171;SDS011;11754;42.664;23.594;2024-02-21T11:57:33;12.95;;;6.50;;
23171;SDS011;11754;42.664;23.594;2024-02-21T12:00:10;7.65;;;6.53;;
23171;SDS011;11754;42.664;23.594;2024-02-21T12:02:49;9.55;;;6.90;;
23171;SDS011;11754;42.664;23.594;2024-02-21T12:08:57;8.43;;;6.80;;
23171;SDS011;11754;42.664;23.594;2024-02-21T12:11:23;9.07;;;7.13;;
23171;SDS011;11754;42.664;23.594;2024-02-21T12:13:58;9.80;;;6.38;;
23171;SDS011;11754;42.664;23.594;2024-02-21T12:16:29;9.77;;;7.30;;
23171;SDS011;11754;42.664;23.594;2024-02-21T12:18:55;9.95;;;7.97;;
23171;SDS011;11754;42.664;23.594;2024-02-21T12:21:29;11.55;;;9.43;;
23171;SDS011;11754;42.664;23.594;2024-02-21T12:23:57;12.43;;;9.20;;
23171;SDS011;11754;42.664;23.594;2024-02-21T12:26:23;12.30;;;9.55;;
23171;SDS011;11754;42.664;23.594;2024-02-21T12:28:49;11.02;;;7.72;;
23171;SDS011;11754;42.664;23.594;2024-02-21T12:31:14;18.23;;;8.50;;
23171;SDS011;11754;42.664;23.594;2024-02-21T12:33:41;13.63;;;7.55;;
23171;SDS011;11754;42.664;23.594;2024-02-21T12:36:07;8.88;;;5.03;;
23171;SDS011;11754;42.664;23.594;2024-02-21T12:38:34;9.25;;;5.07;;
23171;SDS011;11754;42.664;23.594;2024-02-21T12:41:08;9.63;;;5.45;;
23171;SDS011;11754;42.664;23.594;2024-02-21T12:43:33;8.98;;;6.20;;
23171;SDS011;11754;42.664;23.594;2024-02-21T12:45:59;8.95;;;6.43;;
23171;SDS011;11754;42.664;23.594;2024-02-21T12:48:24;11.13;;;6.47;;
23171;SDS011;11754;42.664;23.594;2024-02-21T12:50:50;9.98;;;6.70;;
23171;SDS011;11754;42.664;23.594;2024-02-21T12:53:19;7.50;;;5.70;;
23171;SDS011;11754;42.664;23.594;2024-02-21T12:55:46;9.60;;;5.55;;
23171;SDS011;11754;42.664;23.594;2024-02-21T12:58:13;9.18;;;6.35;;
23171;SDS011;11754;42.664;23.594;2024-02-21T13:00:39;7.95;;;5.47;;
23171;SDS011;11754;42.664;23.594;2024-02-21T13:03:05;7.93;;;5.43;;
23171;SDS011;11754;42.664;23.594;2024-02-21T13:05:30;14.43;;;6.40;;
23171;SDS011;11754;42.664;23.594;2024-02-21T13:07:57;12.50;;;6.18;;
23171;SDS011;11754;42.664;23.594;2024-02-21T13:10:23;10.65;;;6.47;;
23171;SDS011;11754;42.664;23.594;2024-02-21T13:12:49;11.45;;;6.00;;
23171;SDS011;11754;42.664;23.594;2024-02-21T13:15:14;14.43;;;6.50;;
23171;SDS011;11754;42.664;23.594;2024-02-21T13:17:41;11.43;;;6.43;;
23171;SDS011;11754;42.664;23.594;2024-02-21T13:20:06;10.25;;;6.07;;
23171;SDS011;11754;42.664;23.594;2024-02-21T13:22:33;14.27;;;8.38;;
23171;SDS011;11754;42.664;23.594;2024-02-21T13:25:00;12.25;;;8.75;;
23171;SDS011;11754;42.664;23.594;2024-02-21T13:27:26;14.55;;;9.45;;
23171;SDS011;11754;42.664;23.594;2024-02-21T13:33:13;11.82;;;9.13;;
23171;SDS011;11754;42.664;23.594;2024-02-21T13:35:38;13.43;;;10.43;;
23171;SDS011;11754;42.664;23.594;2024-02-21T13:38:04;16.08;;;9.75;;
23171;SDS011;11754;42.664;23.594;2024-02-21T13:40:29;11.52;;;9.20;;
23171;SDS011;11754;42.664;23.594;2024-02-21T13:42:55;14.40;;;9.73;;
23171;SDS011;11754;42.664;23.594;2024-02-21T13:48:41;17.08;;;10.20;;
23171;SDS011;11754;42.664;23.594;2024-02-21T13:51:07;17.00;;;10.82;;
23171;SDS011;11754;42.664;23.594;2024-02-21T13:53:33;15.05;;;9.98;;
23171;SDS011;11754;42.664;23.594;2024-02-21T13:55:59;14.02;;;9.85;;
23171;SDS011;11754;42.664;23.594;2024-02-21T14:01:48;11.30;;;9.00;;
23171;SDS011;11754;42.664;23.594;2024-02-21T14:04:13;15.15;;;8.50;;
23171;SDS011;11754;42.664;23.594;2024-02-21T14:06:39;11.98;;;8.00;;
23171;SDS011;11754;42.664;23.594;2024-02-21T14:09:11;10.60;;;7.95;;
23171;SDS011;11754;42.664;23.594;2024-02-21T14:11:37;12.88;;;7.97;;
23171;SDS011;11754;42.664;23.594;2024-02-21T14:14:03;11.13;;;8.43;;
23171;SDS011;11754;42.664;23.594;2024-02-21T14:16:29;10.57;;;7.43;;
23171;SDS011;11754;42.664;23.594;2024-02-21T14:18:55;10.63;;;8.02;;
23171;SDS011;11754;42.664;23.594;2024-02-21T14:21:20;10.05;;;7.82;;
23171;SDS011;11754;42.664;23.594;2024-02-21T14:30:29;9.68;;;7.57;;
23171;SDS011;11754;42.664;23.594;2024-02-21T14:32:54;13.40;;;7.75;;
23171;SDS011;11754;42.664;23.594;2024-02-21T14:35:20;13.25;;;8.27;;
23171;SDS011;11754;42.664;23.594;2024-02-21T14:37:45;10.65;;;7.43;;
23171;SDS011;11754;42.664;23.594;2024-02-21T14:40:11;11.48;;;8.00;;
23171;SDS011;11754;42.664;23.594;2024-02-21T14:42:37;10.43;;;8.25;;
23171;SDS011;11754;42.664;23.594;2024-02-21T14:45:02;11.57;;;7.78;;
23171;SDS011;11754;42.664;23.594;2024-02-21T14:47:31;11.95;;;7.70;;
23171;SDS011;11754;42.664;23.594;2024-02-21T14:49:57;15.00;;;8.27;;
23171;SDS011;11754;42.664;23.594;2024-02-21T15:13:49;11.30;;;6.90;;
23171;SDS011;11754;42.664;23.594;2024-02-21T15:16:14;9.30;;;6.85;;
23171;SDS011;11754;42.664;23.594;2024-02-21T15:18:41;11.40;;;6.55;;
23171;SDS011;11754;42.664;23.594;2024-02-21T15:21:06;11.30;;;6.70;;
23171;SDS011;11754;42.664;23.594;2024-02-21T15:23:32;11.45;;;7.32;;
23171;SDS011;11754;42.664;23.594;2024-02-21T15:25:58;12.43;;;7.05;;
23171;SDS011;11754;42.664;23.594;2024-02-21T15:28:25;11.05;;;7.65;;
23171;SDS011;11754;42.664;23.594;2024-02-21T15:30:53;12.30;;;7.75;;
23171;SDS011;11754;42.664;23.594;2024-02-21T15:33:19;17.55;;;7.93;;
23171;SDS011;11754;42.664;23.594;2024-02-21T15:39:05;12.85;;;7.93;;
23171;SDS011;11754;42.664;23.594;2024-02-21T15:41:32;11.68;;;7.80;;
23171;SDS011;11754;42.664;23.594;2024-02-21T15:43:59;18.75;;;9.43;;
23171;SDS011;11754;42.664;23.594;2024-02-21T15:46:24;25.40;;;11.23;;
23171;SDS011;11754;42.664;23.594;2024-02-21T15:48:50;18.30;;;11.43;;
23171;SDS011;11754;42.664;23.594;2024-02-21T15:51:19;18.58;;;10.48;;
23171;SDS011;11754;42.664;23.594;2024-02-21T15:53:45;23.05;;;10.68;;
23171;SDS011;11754;42.664;23.594;2024-02-21T15:56:11;14.13;;;10.23;;
23171;SDS011;11754;42.664;23.594;2024-02-21T15:58:38;23.70;;;9.85;;
23171;SDS011;11754;42.664;23.594;2024-02-21T16:01:04;21.85;;;10.40;;
23171;SDS011;11754;42.664;23.594;2024-02-21T16:03:30;18.85;;;10.25;;
23171;SDS011;11754;42.664;23.594;2024-02-21T16:05:56;21.13;;;11.02;;
23171;SDS011;11754;42.664;23.594;2024-02-21T16:08:22;33.58;;;12.20;;
23171;SDS011;11754;42.664;23.594;2024-02-21T16:10:48;22.52;;;11.20;;
23171;SDS011;11754;42.664;23.594;2024-02-21T16:13:16;20.17;;;11.07;;
23171;SDS011;11754;42.664;23.594;2024-02-21T16:15:42;21.40;;;11.07;;
23171;SDS011;11754;42.664;23.594;2024-02-21T16:18:07;17.27;;;10.55;;
23171;SDS011;11754;42.664;23.594;2024-02-21T16:20:33;18.55;;;9.88;;
23171;SDS011;11754;42.664;23.594;2024-02-21T16:22:58;20.42;;;9.82;;
23171;SDS011;11754;42.664;23.594;2024-02-21T16:25:28;46.67;;;20.58;;
23171;SDS011;11754;42.664;23.594;2024-02-21T16:27:54;51.28;;;27.65;;
23171;SDS011;11754;42.664;23.594;2024-02-21T16:30:19;15.77;;;11.02;;
23171;SDS011;11754;42.664;23.594;2024-02-21T16:32:48;24.25;;;14.82;;
23171;SDS011;11754;42.664;23.594;2024-02-21T16:35:13;15.60;;;11.13;;
23171;SDS011;11754;42.664;23.594;2024-02-21T16:37:39;18.73;;;10.73;;
23171;SDS011;11754;42.664;23.594;2024-02-21T16:40:04;17.73;;;11.05;;
23171;SDS011;11754;42.664;23.594;2024-02-21T16:42:31;29.88;;;11.82;;
23171;SDS011;11754;42.664;23.594;2024-02-21T16:44:56;21.52;;;10.85;;
23171;SDS011;11754;42.664;23.594;2024-02-21T16:47:22;22.20;;;11.20;;
23171;SDS011;11754;42.664;23.594;2024-02-21T16:49:50;17.98;;;10.48;;
23171;SDS011;11754;42.664;23.594;2024-02-21T16:52:15;21.15;;;10.95;;
23171;SDS011;11754;42.664;23.594;2024-02-21T16:54:40;25.20;;;11.50;;
23171;SDS011;11754;42.664;23.594;2024-02-21T16:57:06;14.10;;;11.23;;
23171;SDS011;11754;42.664;23.594;2024-02-21T17:02:53;18.27;;;11.10;;
23171;SDS011;11754;42.664;23.594;2024-02-21T17:05:19;17.00;;;11.13;;
23171;SDS011;11754;42.664;23.594;2024-02-21T17:07:45;15.88;;;11.00;;
23171;SDS011;11754;42.664;23.594;2024-02-21T17:10:10;19.42;;;10.63;;
23171;SDS011;11754;42.664;23.594;2024-02-21T17:12:36;17.50;;;11.00;;
23171;SDS011;11754;42.664;23.594;2024-02-21T17:15:04;13.75;;;11.02;;
23171;SDS011;11754;42.664;23.594;2024-02-21T17:17:36;14.70;;;10.60;;
23171;SDS011;11754;42.664;23.594;2024-02-21T17:20:01;20.63;;;12.10;;
23171;SDS011;11754;42.664;23.594;2024-02-21T17:22:28;15.88;;;11.40;;
23171;SDS011;11754;42.664;23.594;2024-02-21T17:24:53;17.52;;;12.20;;
23171;SDS011;11754;42.664;23.594;2024-02-21T17:27:19;19.17;;;13.13;;
23171;SDS011;11754;42.664;23.594;2024-02-21T17:29:44;18.90;;;12.88;;
23171;SDS011;11754;42.664;23.594;2024-02-21T17:32:10;21.50;;;14.40;;
23171;SDS011;11754;42.664;23.594;2024-02-21T17:34:35;23.48;;;15.20;;
23171;SDS011;11754;42.664;23.594;2024-02-21T17:37:01;24.42;;;15.52;;
23171;SDS011;11754;42.664;23.594;2024-02-21T17:39:26;20.50;;;14.00;;